Time;durP1;ratioP1;P1;durP2;ratioP2;P2;SDS_P1;SDS_P2;PMS_P1;PMS_P2;Temp;Humidity;BMP_temperature;BMP_pressure;BME280_temperature;BME280_humidity;BME280_pressure;Samples;Min_cycle;Max_cycle;Signal;HPM_P1;HPM_P2
2024/02/08 00:00:46;;;;;;;11.25;5.47;;;3.10;99.90;;;;;;5054383;28;20200;-74
2024/02/08 00:03:13;;;;;;;15.38;6.82;;;3.10;99.90;;;;;;5047310;28;20224;-73
2024/02/08 00:05:41;;;;;;;14.27;6.50;;;3.00;99.90;;;;;;5047972;28;20196;-73
2024/02/08 00:08:11;;;;;;;11.63;6.63;;;2.90;99.90;;;;;;5056175;28;20568;-74
2024/02/08 00:10:38;;;;;;;15.35;6.45;;;3.00;99.90;;;;;;5054952;28;20203;-72
2024/02/08 00:13:05;;;;;;;13.32;6.07;;;3.00;99.90;;;;;;5061032;28;20689;-72
2024/02/08 00:15:34;;;;;;;16.35;6.75;;;3.00;99.90;;;;;;5053121;28;20228;-73
2024/02/08 00:18:01;;;;;;;9.80;5.22;;;3.00;99.90;;;;;;5055218;28;20212;-72
2024/02/08 00:20:28;;;;;;;13.88;6.65;;;3.10;99.90;;;;;;5061542;28;20204;-73
2024/02/08 00:22:56;;;;;;;15.30;5.68;;;3.20;99.90;;;;;;5053052;28;20285;-73
2024/02/08 00:25:24;;;;;;;24.75;7.20;;;3.00;99.90;;;;;;5053623;28;20230;-73
2024/02/08 00:27:52;;;;;;;20.40;6.80;;;3.00;99.90;;;;;;5071078;28;20644;-75
2024/02/08 00:30:19;;;;;;;16.25;6.00;;;2.90;99.90;;;;;;5050945;28;20207;-72
2024/02/08 00:32:48;;;;;;;10.90;5.95;;;2.90;99.90;;;;;;5060951;28;20295;-73
2024/02/08 00:35:17;;;;;;;16.23;6.55;;;2.90;99.90;;;;;;5046649;28;20207;-72
2024/02/08 00:37:47;;;;;;;16.27;5.78;;;2.90;99.90;;;;;;5051419;28;20303;-72
2024/02/08 00:40:15;;;;;;;11.82;6.03;;;2.90;99.90;;;;;;5053455;28;20235;-73
2024/02/08 00:42:42;;;;;;;14.02;6.50;;;2.90;99.90;;;;;;5052481;28;20701;-73
2024/02/08 00:45:10;;;;;;;19.73;7.00;;;2.90;99.90;;;;;;5053414;28;20245;-72
2024/02/08 00:47:37;;;;;;;19.73;7.20;;;2.80;99.90;;;;;;5052097;28;20224;-72
2024/02/08 00:50:06;;;;;;;16.17;6.72;;;2.90;99.90;;;;;;5053852;28;20204;-73
2024/02/08 00:52:33;;;;;;;11.82;6.03;;;2.90;99.90;;;;;;5051484;28;20283;-72
2024/02/08 00:55:01;;;;;;;13.88;5.57;;;2.80;99.90;;;;;;5052166;28;20297;-72
2024/02/08 00:57:32;;;;;;;7.28;5.55;;;2.80;99.90;;;;;;5053444;28;20204;-73
2024/02/08 01:00:00;;;;;;;15.85;5.57;;;2.80;99.90;;;;;;5055310;28;20629;-73
2024/02/08 01:02:28;;;;;;;14.00;6.68;;;2.80;99.90;;;;;;5052182;28;20223;-72
2024/02/08 01:04:55;;;;;;;17.83;6.68;;;2.70;99.90;;;;;;5044715;28;20232;-74
2024/02/08 01:07:23;;;;;;;12.05;6.35;;;2.70;99.90;;;;;;5052563;28;20243;-72
2024/02/08 01:09:50;;;;;;;17.80;6.50;;;2.70;99.90;;;;;;5057388;28;20208;-74
2024/02/08 01:12:18;;;;;;;11.65;5.35;;;2.70;99.90;;;;;;5052457;28;20270;-76
2024/02/08 01:14:48;;;;;;;14.23;6.15;;;2.70;99.90;;;;;;5052608;28;20303;-73
2024/02/08 01:17:15;;;;;;;13.73;7.07;;;2.70;99.90;;;;;;5051741;28;20262;-74
2024/02/08 01:19:43;;;;;;;21.50;6.30;;;2.70;99.90;;;;;;5050997;28;20647;-74
2024/02/08 01:22:11;;;;;;;11.93;6.10;;;2.80;99.90;;;;;;5051472;28;20223;-70
2024/02/08 01:24:39;;;;;;;9.93;5.20;;;2.70;99.90;;;;;;5052667;28;20215;-72
2024/02/08 01:27:06;;;;;;;15.52;6.43;;;2.70;99.90;;;;;;5052197;28;20708;-73
2024/02/08 01:29:33;;;;;;;22.30;5.97;;;2.70;99.90;;;;;;5055576;28;20215;-73
2024/02/08 01:32:01;;;;;;;14.27;6.03;;;2.70;99.90;;;;;;5054689;28;20254;-72
2024/02/08 01:34:28;;;;;;;11.70;5.82;;;2.70;99.90;;;;;;5057173;28;20210;-73
2024/02/08 01:36:55;;;;;;;11.95;5.30;;;2.70;99.90;;;;;;5060445;28;20319;-76
2024/02/08 01:39:25;;;;;;;8.50;5.78;;;2.70;99.90;;;;;;5052678;28;20280;-74
2024/02/08 01:41:53;;;;;;;5.88;5.05;;;2.70;99.90;;;;;;5053437;28;20261;-73
2024/02/08 01:44:22;;;;;;;10.88;5.53;;;2.80;99.90;;;;;;5054535;28;20212;-75
2024/02/08 01:46:50;;;;;;;14.00;6.05;;;2.80;99.90;;;;;;5055195;28;20196;-75
2024/02/08 01:49:20;;;;;;;11.93;6.57;;;2.80;99.90;;;;;;5047610;28;20200;-74
2024/02/08 01:51:49;;;;;;;9.77;6.72;;;2.80;99.90;;;;;;5055109;28;20258;-74
2024/02/08 01:54:19;;;;;;;14.85;5.55;;;2.80;99.90;;;;;;5055205;28;20667;-70
2024/02/08 01:56:47;;;;;;;16.08;8.40;;;2.80;99.90;;;;;;5053023;28;20725;-74
2024/02/08 01:59:19;;;;;;;14.15;7.18;;;2.70;99.90;;;;;;5056113;28;20224;-73
2024/02/08 02:01:51;;;;;;;13.68;5.40;;;2.80;99.90;;;;;;5056928;28;20608;-73
2024/02/08 02:04:18;;;;;;;9.35;5.55;;;2.80;99.90;;;;;;5060063;28;20250;-73
2024/02/08 02:06:45;;;;;;;20.55;7.05;;;2.80;99.90;;;;;;5060478;28;20199;-74
2024/02/08 02:09:23;;;;;;;19.05;4.90;;;2.90;99.90;;;;;;5063445;28;20208;-75
2024/02/08 02:11:56;;;;;;;12.70;6.00;;;3.00;99.90;;;;;;5055848;28;20211;-76
2024/02/08 02:14:29;;;;;;;11.68;6.65;;;3.10;99.90;;;;;;5048967;28;20277;-74
2024/02/08 02:17:07;;;;;;;7.30;4.60;;;3.10;99.90;;;;;;5057429;28;20216;-72
2024/02/08 02:19:34;;;;;;;13.13;5.45;;;3.00;99.90;;;;;;5055677;28;20212;-72
2024/02/08 02:22:03;;;;;;;19.63;7.90;;;3.10;99.90;;;;;;5054606;28;20262;-73
2024/02/08 02:24:30;;;;;;;11.85;5.72;;;3.00;99.90;;;;;;5055077;28;20255;-74
2024/02/08 02:26:58;;;;;;;10.98;5.88;;;3.00;99.90;;;;;;5054662;28;20208;-72
2024/02/08 02:29:26;;;;;;;17.90;5.40;;;3.00;99.90;;;;;;5054858;28;20208;-76
2024/02/08 02:31:54;;;;;;;13.15;5.82;;;3.10;99.90;;;;;;5054540;28;20208;-72
2024/02/08 02:34:25;;;;;;;10.77;5.40;;;3.10;99.90;;;;;;5051447;28;20250;-72
2024/02/08 02:36:54;;;;;;;16.42;6.93;;;3.20;99.90;;;;;;5054888;28;20665;-72
2024/02/08 02:39:25;;;;;;;6.03;4.18;;;3.20;99.90;;;;;;5056960;28;20887;-71
2024/02/08 02:41:53;;;;;;;7.82;6.15;;;3.20;99.90;;;;;;5054823;28;20290;-72
2024/02/08 02:44:20;;;;;;;10.07;6.60;;;3.10;99.90;;;;;;5053720;28;20204;-72
2024/02/08 02:46:49;;;;;;;19.20;6.47;;;3.10;99.90;;;;;;5054288;28;20204;-73
2024/02/08 02:49:17;;;;;;;13.00;5.72;;;3.10;99.90;;;;;;5054227;28;20203;-73
2024/02/08 02:51:48;;;;;;;8.85;6.20;;;3.00;99.90;;;;;;5060115;28;20203;-73
2024/02/08 02:54:16;;;;;;;7.93;5.63;;;3.00;99.90;;;;;;5056021;28;20250;-73
2024/02/08 02:56:46;;;;;;;18.15;7.75;;;2.90;99.90;;;;;;5054157;28;20246;-73
2024/02/08 02:59:16;;;;;;;12.02;6.22;;;2.90;99.90;;;;;;5055200;28;20203;-73
2024/02/08 03:01:47;;;;;;;12.10;6.65;;;2.90;99.90;;;;;;5053577;28;20550;-71
2024/02/08 03:04:16;;;;;;;16.30;5.93;;;2.90;99.90;;;;;;5055473;28;20215;-74
2024/02/08 03:06:45;;;;;;;7.30;5.50;;;2.90;99.90;;;;;;5065746;28;20242;-72
2024/02/08 03:09:15;;;;;;;15.30;6.28;;;2.90;99.90;;;;;;5057441;28;20253;-72
2024/02/08 03:11:46;;;;;;;15.32;6.07;;;2.90;99.90;;;;;;5054624;28;20204;-73
2024/02/08 03:14:15;;;;;;;14.60;6.85;;;2.90;99.90;;;;;;5052782;28;20212;-72
2024/02/08 03:16:42;;;;;;;17.23;7.32;;;2.90;99.90;;;;;;5054117;28;20261;-74
2024/02/08 03:19:09;;;;;;;8.35;5.50;;;3.00;99.90;;;;;;5051108;28;20575;-74
2024/02/08 03:21:36;;;;;;;10.38;5.50;;;3.00;99.90;;;;;;5142103;22;20573;-71
2024/02/08 03:24:08;;;;;;;13.50;6.00;;;3.00;99.90;;;;;;5041113;28;20225;-72
2024/02/08 03:26:40;;;;;;;18.55;6.53;;;3.00;99.90;;;;;;5045051;28;20207;-74
2024/02/08 03:29:11;;;;;;;11.75;5.45;;;3.00;99.90;;;;;;5043514;28;20284;-72
2024/02/08 03:31:45;;;;;;;14.35;5.88;;;2.90;99.90;;;;;;5057831;28;20204;-72
2024/02/08 03:34:16;;;;;;;8.52;5.55;;;2.90;99.90;;;;;;5044864;28;20205;-72
2024/02/08 03:36:45;;;;;;;15.73;6.35;;;2.90;99.90;;;;;;5043402;28;20338;-74
2024/02/08 03:39:24;;;;;;;17.15;6.05;;;2.90;99.90;;;;;;5051629;28;20243;-72
2024/02/08 03:41:52;;;;;;;14.98;5.28;;;2.90;99.90;;;;;;5058589;28;20196;-73
2024/02/08 03:44:21;;;;;;;13.73;5.22;;;3.00;99.90;;;;;;5056287;28;20298;-73
2024/02/08 03:46:52;;;;;;;20.30;7.55;;;3.00;99.90;;;;;;5059757;28;20279;-74
2024/02/08 03:49:19;;;;;;;17.00;6.80;;;3.00;99.90;;;;;;5043743;28;20192;-72
2024/02/08 03:51:48;;;;;;;19.48;6.07;;;2.90;99.90;;;;;;5052911;28;20204;-72
2024/02/08 03:54:17;;;;;;;10.75;7.28;;;3.00;99.90;;;;;;5042938;28;20346;-70
2024/02/08 03:56:45;;;;;;;24.15;9.27;;;3.00;99.90;;;;;;5043166;28;20390;-72
2024/02/08 03:59:26;;;;;;;12.77;6.53;;;3.00;99.90;;;;;;5054832;28;20212;-71
2024/02/08 04:02:00;;;;;;;29.77;8.57;;;2.90;99.90;;;;;;5052498;28;20215;-74
2024/02/08 04:04:34;;;;;;;17.88;6.57;;;3.00;99.90;;;;;;5046321;28;20192;-73
2024/02/08 04:07:19;;;;;;;16.90;5.95;;;2.90;99.90;;;;;;5044422;28;20295;-72
2024/02/08 04:09:50;;;;;;;12.73;5.60;;;2.90;99.90;;;;;;5049831;28;20617;-72
2024/02/08 04:53:38;;;;;;;10.23;6.05;;;2.90;99.90;;;;;;5048790;28;20704;-73
2024/02/08 04:56:10;;;;;;;14.32;6.85;;;2.90;99.90;;;;;;5052264;28;20251;-74
2024/02/08 04:58:39;;;;;;;11.05;7.47;;;2.90;99.90;;;;;;5040123;28;20204;-74
2024/02/08 05:01:09;;;;;;;17.38;7.70;;;2.80;99.90;;;;;;5051987;28;20632;-72
2024/02/08 05:03:37;;;;;;;15.30;7.03;;;2.80;99.90;;;;;;5049362;28;20235;-71
2024/02/08 05:06:14;;;;;;;8.68;5.78;;;2.90;99.90;;;;;;5046911;28;20206;-74
2024/02/08 05:08:42;;;;;;;9.40;5.88;;;2.90;99.90;;;;;;5047936;28;20270;-72
2024/02/08 05:11:10;;;;;;;11.57;5.93;;;2.90;99.90;;;;;;5041239;28;20228;-71
2024/02/08 05:13:40;;;;;;;15.27;7.25;;;2.90;99.90;;;;;;5047354;28;20219;-71
2024/02/08 05:16:10;;;;;;;15.68;7.35;;;2.90;99.90;;;;;;5050957;28;20302;-73
2024/02/08 05:18:37;;;;;;;19.58;6.53;;;2.80;99.90;;;;;;5049463;28;20204;-72
2024/02/08 05:21:06;;;;;;;22.48;8.85;;;2.80;99.90;;;;;;5051960;28;20266;-71
2024/02/08 05:23:38;;;;;;;15.27;5.35;;;2.80;99.90;;;;;;5059079;28;20693;-71
2024/02/08 05:26:07;;;;;;;10.25;5.65;;;2.80;99.90;;;;;;5056224;28;20290;-73
2024/02/08 05:28:34;;;;;;;14.93;6.85;;;2.90;99.90;;;;;;5055952;28;20278;-74
2024/02/08 05:31:01;;;;;;;19.10;5.97;;;3.00;99.90;;;;;;5056670;28;20208;-73
2024/02/08 05:33:30;;;;;;;14.65;6.07;;;3.10;99.90;;;;;;5054431;28;20281;-73
2024/02/08 05:35:57;;;;;;;13.75;6.30;;;3.10;99.90;;;;;;5052456;28;20266;-72
2024/02/08 05:38:25;;;;;;;17.25;8.70;;;3.20;99.90;;;;;;5056402;28;20211;-72
2024/02/08 05:40:54;;;;;;;9.98;6.78;;;3.40;99.90;;;;;;5058674;28;20295;-75
2024/02/08 05:43:27;;;;;;;9.20;6.07;;;3.20;99.90;;;;;;5050348;28;20224;-73
2024/02/08 05:45:54;;;;;;;16.58;6.60;;;3.20;99.90;;;;;;5053722;28;20283;-73
2024/02/08 05:48:23;;;;;;;13.30;6.15;;;3.20;99.90;;;;;;5053281;28;20223;-73
2024/02/08 05:50:57;;;;;;;13.75;5.53;;;3.30;99.90;;;;;;5053334;28;20235;-72
2024/02/08 05:53:24;;;;;;;9.07;5.25;;;3.30;99.90;;;;;;5048889;28;20281;-74
2024/02/08 05:55:54;;;;;;;12.50;5.57;;;3.20;99.90;;;;;;5052195;28;20258;-73
2024/02/08 05:58:21;;;;;;;13.68;5.78;;;3.20;99.90;;;;;;5055245;28;20654;-73
2024/02/08 06:01:01;;;;;;;13.45;5.50;;;3.20;99.90;;;;;;5058039;28;20238;-74
2024/02/08 06:03:33;;;;;;;18.35;8.13;;;3.20;99.90;;;;;;5052469;28;20234;-73
2024/02/08 06:06:07;;;;;;;19.60;6.32;;;3.30;99.90;;;;;;5046909;28;20247;-73
2024/02/08 06:08:41;;;;;;;12.07;6.75;;;3.30;99.90;;;;;;5053241;28;20196;-73
2024/02/08 06:11:16;;;;;;;17.45;7.20;;;3.30;99.90;;;;;;5062131;28;20206;-72
2024/02/08 06:13:50;;;;;;;13.15;7.22;;;3.20;99.90;;;;;;5044181;28;20231;-73
2024/02/08 06:16:26;;;;;;;22.10;7.28;;;3.30;99.90;;;;;;5052348;28;20227;-72
2024/02/08 06:18:57;;;;;;;16.85;6.65;;;3.30;99.90;;;;;;5047761;28;20203;-72
2024/02/08 06:21:38;;;;;;;11.88;6.70;;;3.30;99.90;;;;;;5059514;28;20200;-73
2024/02/08 06:24:29;;;;;;;15.88;6.50;;;3.40;99.90;;;;;;5055362;28;20595;-73
2024/02/08 06:26:58;;;;;;;20.20;6.38;;;3.50;99.90;;;;;;5050621;28;20654;-72
2024/02/08 06:29:38;;;;;;;13.38;6.40;;;3.60;99.90;;;;;;5040444;28;20619;-74
2024/02/08 06:32:23;;;;;;;22.83;7.28;;;3.60;99.90;;;;;;5058354;28;20192;-73
2024/02/08 06:35:06;;;;;;;14.75;7.50;;;3.60;99.90;;;;;;5053289;28;20658;-73
2024/02/08 06:37:33;;;;;;;10.30;6.90;;;3.60;99.90;;;;;;5051225;28;20585;-72
2024/02/08 06:40:00;;;;;;;14.43;6.70;;;3.60;99.90;;;;;;5050134;28;20292;-73
2024/02/08 06:42:44;;;;;;;13.30;7.43;;;3.70;99.90;;;;;;5058501;28;20216;-74
2024/02/08 07:38:07;;;;;;;18.75;7.60;;;3.80;99.90;;;;;;5054957;28;20707;-75
2024/02/08 07:40:35;;;;;;;13.25;7.78;;;3.70;99.90;;;;;;5038336;28;20312;-74
2024/02/08 07:43:19;;;;;;;13.95;7.70;;;3.60;99.90;;;;;;5054919;28;20246;-72
2024/02/08 07:45:47;;;;;;;9.18;6.35;;;3.70;99.90;;;;;;5058963;28;20204;-73
2024/02/08 07:48:37;;;;;;;13.25;6.65;;;3.80;99.90;;;;;;5041743;28;20594;-73
2024/02/08 07:51:05;;;;;;;18.65;8.32;;;3.80;99.90;;;;;;5053850;28;20256;-73
2024/02/08 07:53:35;;;;;;;14.32;7.22;;;3.80;99.90;;;;;;5051949;28;20270;-76
2024/02/08 07:58:48;;;;;;;17.63;8.00;;;3.90;99.90;;;;;;5050680;28;20211;-73
2024/02/08 08:01:17;;;;;;;18.40;7.03;;;3.90;99.90;;;;;;5056349;28;20204;-73
2024/02/08 08:03:45;;;;;;;27.35;7.25;;;4.00;99.90;;;;;;5047406;28;20231;-74
2024/02/08 08:06:15;;;;;;;14.85;6.90;;;4.00;99.90;;;;;;5050724;28;20279;-72
2024/02/08 08:08:55;;;;;;;14.82;5.57;;;4.10;99.90;;;;;;5051908;28;20226;-73
2024/02/08 08:11:25;;;;;;;12.73;6.90;;;4.20;99.90;;;;;;5054700;28;20204;-72
2024/02/08 08:14:09;;;;;;;12.73;6.75;;;4.10;99.90;;;;;;5049156;28;20222;-72
2024/02/08 08:17:07;;;;;;;23.63;7.38;;;4.10;99.90;;;;;;5052218;28;20251;-73
2024/02/08 08:19:38;;;;;;;16.15;7.15;;;4.10;99.90;;;;;;5045514;28;20290;-73
2024/02/08 08:22:18;;;;;;;10.02;6.03;;;4.10;99.90;;;;;;5052299;28;20211;-74
2024/02/08 08:27:27;;;;;;;18.52;8.95;;;4.20;99.90;;;;;;5048090;28;20184;-72
2024/02/08 08:29:58;;;;;;;16.15;8.27;;;4.20;99.90;;;;;;5043553;28;20553;-74
2024/02/08 08:41:00;;;;;;;13.70;9.05;;;4.20;99.90;;;;;;5046804;28;20665;-75
2024/02/08 08:43:31;;;;;;;16.70;7.70;;;4.20;99.90;;;;;;5044308;28;20235;-73
2024/02/08 08:46:00;;;;;;;19.73;9.35;;;4.20;99.90;;;;;;5052624;28;20661;-72
2024/02/08 08:48:31;;;;;;;23.23;8.27;;;4.30;99.90;;;;;;5035339;28;20248;-71
2024/02/08 08:51:10;;;;;;;19.80;7.97;;;4.40;99.90;;;;;;5049891;28;20570;-72
2024/02/08 08:53:43;;;;;;;17.25;7.93;;;4.40;99.90;;;;;;5045012;28;20628;-74
2024/02/08 08:56:12;;;;;;;12.10;8.15;;;4.30;99.90;;;;;;5053565;28;20254;-74
2024/02/08 08:58:40;;;;;;;12.90;7.88;;;4.40;99.90;;;;;;5039895;28;20232;-72
2024/02/08 09:01:18;;;;;;;16.67;7.60;;;4.40;99.90;;;;;;5052242;28;20202;-72
2024/02/08 09:03:55;;;;;;;20.15;8.70;;;4.40;99.90;;;;;;5044471;28;20699;-74
2024/02/08 09:06:25;;;;;;;15.50;7.30;;;4.50;99.90;;;;;;5044980;28;20211;-73
2024/02/08 09:08:55;;;;;;;12.13;6.30;;;4.60;99.90;;;;;;5045239;28;20799;-74
2024/02/08 09:11:24;;;;;;;20.33;8.18;;;4.70;99.90;;;;;;5046490;28;20201;-75
2024/02/08 09:13:53;;;;;;;14.40;7.65;;;4.80;99.90;;;;;;5048885;28;20224;-74
2024/02/08 09:16:36;;;;;;;9.45;6.43;;;4.80;99.90;;;;;;5042295;28;20303;-73
2024/02/08 09:19:06;;;;;;;20.38;8.70;;;5.00;99.90;;;;;;5045924;28;20244;-75
2024/02/08 09:21:39;;;;;;;15.43;6.50;;;5.10;99.90;;;;;;5042478;28;20236;-74
2024/02/08 09:24:07;;;;;;;15.90;6.10;;;5.20;99.90;;;;;;5048677;28;20591;-72
2024/02/08 09:26:48;;;;;;;25.77;8.68;;;5.30;99.90;;;;;;5046524;28;20195;-74
2024/02/08 09:29:23;;;;;;;11.68;7.18;;;5.40;99.90;;;;;;5053089;28;20210;-74
2024/02/08 09:31:56;;;;;;;14.07;7.10;;;5.50;99.90;;;;;;5046276;28;20227;-74
2024/02/08 09:34:36;;;;;;;21.20;8.02;;;5.60;99.90;;;;;;5052013;28;20273;-75
2024/02/08 09:37:06;;;;;;;13.25;5.95;;;5.50;99.90;;;;;;5048723;28;20224;-74
2024/02/08 09:42:15;;;;;;;16.70;6.43;;;5.60;99.90;;;;;;5052183;28;20219;-74
2024/02/08 09:44:49;;;;;;;13.07;7.32;;;5.60;99.90;;;;;;5051807;28;20609;-75
2024/02/08 09:47:25;;;;;;;13.43;6.97;;;5.70;99.90;;;;;;5044736;28;20196;-74
2024/02/08 09:50:00;;;;;;;13.73;6.95;;;5.60;99.90;;;;;;5035983;28;20200;-74
2024/02/08 09:52:31;;;;;;;11.02;5.93;;;5.60;99.90;;;;;;5040517;28;20219;-77
2024/02/08 09:55:08;;;;;;;21.23;7.20;;;5.60;99.90;;;;;;5037776;28;20633;-74
2024/02/08 09:57:45;;;;;;;9.05;6.65;;;5.60;99.90;;;;;;5038789;28;20212;-74
2024/02/08 10:03:03;;;;;;;16.30;7.05;;;5.50;99.90;;;;;;5044574;28;20729;-74
2024/02/08 10:05:52;;;;;;;19.65;6.93;;;5.50;99.90;;;;;;5048290;28;20728;-76
2024/02/08 10:08:28;;;;;;;22.63;8.20;;;5.60;99.90;;;;;;5044410;28;20196;-72
2024/02/08 10:11:11;;;;;;;17.30;6.72;;;5.60;99.90;;;;;;5054623;28;20235;-75
2024/02/08 10:16:29;;;;;;;13.95;7.50;;;5.70;99.90;;;;;;5048664;28;20245;-74
2024/02/08 10:19:02;;;;;;;13.25;6.57;;;5.70;99.90;;;;;;5042421;28;20234;-73
2024/02/08 10:21:30;;;;;;;15.40;6.70;;;5.90;99.90;;;;;;5054207;28;20203;-73
2024/02/08 10:23:59;;;;;;;15.52;7.80;;;6.00;99.90;;;;;;5045164;28;20723;-72
2024/02/08 10:26:28;;;;;;;15.10;8.35;;;5.90;99.90;;;;;;5039195;28;20212;-72
2024/02/08 10:28:55;;;;;;;22.80;6.88;;;6.00;99.90;;;;;;5045458;28;20662;-75
2024/02/08 10:31:25;;;;;;;17.85;6.43;;;6.10;99.90;;;;;;5050570;28;20204;-74
2024/02/08 10:34:08;;;;;;;15.70;6.78;;;6.20;99.90;;;;;;5054771;28;20623;-74
2024/02/08 10:36:39;;;;;;;11.25;5.43;;;6.10;99.90;;;;;;5042336;28;20601;-76
2024/02/08 10:39:23;;;;;;;7.82;5.45;;;6.10;99.90;;;;;;5045652;28;20224;-74
2024/02/08 10:41:58;;;;;;;8.88;5.70;;;6.10;99.90;;;;;;5050249;28;20269;-74
2024/02/08 10:44:28;;;;;;;13.40;6.40;;;6.10;99.90;;;;;;5050235;28;20206;-75
2024/02/08 10:47:06;;;;;;;11.65;7.07;;;6.30;99.90;;;;;;5049588;28;20258;-75
2024/02/08 10:49:42;;;;;;;7.20;4.80;;;6.50;99.90;;;;;;5051086;28;20204;-73
2024/02/08 10:52:12;;;;;;;17.08;6.90;;;6.60;99.90;;;;;;5049387;28;20277;-75
2024/02/08 10:54:48;;;;;;;10.32;5.40;;;6.80;99.90;;;;;;5054652;28;20204;-73
2024/02/08 10:57:39;;;;;;;11.77;6.93;;;7.00;99.90;;;;;;5047848;28;20624;-74
2024/02/08 11:00:49;;;;;;;18.05;6.55;;;7.00;99.90;;;;;;5051921;28;20265;-73
2024/02/08 11:03:08;;;;;;;18.13;8.23;;;7.10;99.90;;;;;;5052179;28;20223;-75
2024/02/08 11:05:48;;;;;;;14.60;6.55;;;7.20;99.90;;;;;;5043673;28;20203;-75
2024/02/08 11:08:23;;;;;;;12.63;7.00;;;7.30;99.90;;;;;;5046574;28;20289;-76
2024/02/08 11:10:58;;;;;;;11.75;5.05;;;7.30;99.90;;;;;;5047013;28;20569;-75
2024/02/08 11:13:30;;;;;;;20.10;5.32;;;7.30;99.90;;;;;;5045228;28;20232;-74
2024/02/08 11:16:19;;;;;;;10.43;4.70;;;7.20;99.90;;;;;;5047940;28;20228;-73
2024/02/08 11:18:47;;;;;;;6.65;3.53;;;7.50;99.90;;;;;;5042202;28;20286;-75
2024/02/08 11:21:24;;;;;;;12.73;4.70;;;7.40;99.90;;;;;;5052189;28;20214;-75
2024/02/08 11:23:57;;;;;;;8.93;3.95;;;7.40;99.90;;;;;;5047136;28;20277;-73
2024/02/08 11:26:26;;;;;;;14.23;4.10;;;7.30;99.90;;;;;;5048406;28;20803;-75
2024/02/08 11:29:02;;;;;;;8.63;4.05;;;7.30;99.90;;;;;;5044749;28;20300;-75
2024/02/08 11:31:33;;;;;;;14.80;5.20;;;7.40;99.90;;;;;;5046467;28;20230;-75
2024/02/08 11:34:13;;;;;;;10.43;3.35;;;7.50;99.90;;;;;;5047320;28;20685;-75
2024/02/08 11:36:42;;;;;;;15.73;3.30;;;7.70;99.90;;;;;;5043584;28;20201;-75
2024/02/08 11:39:26;;;;;;;11.90;4.72;;;7.80;99.90;;;;;;5048210;28;20282;-76
2024/02/08 11:41:59;;;;;;;9.13;3.78;;;7.90;99.90;;;;;;5046038;28;20680;-75
2024/02/08 11:44:29;;;;;;;13.50;3.45;;;7.80;99.90;;;;;;5036049;28;20274;-74
2024/02/08 11:47:00;;;;;;;7.38;3.30;;;7.70;99.90;;;;;;5043148;28;20227;-75
2024/02/08 11:49:35;;;;;;;11.63;4.22;;;7.60;99.90;;;;;;5041618;28;20197;-75
2024/02/08 11:52:06;;;;;;;11.63;4.97;;;7.70;99.90;;;;;;5051185;28;20565;-73
2024/02/08 11:54:38;;;;;;;9.63;3.75;;;7.70;99.90;;;;;;5046026;28;20211;-73
2024/02/08 11:57:11;;;;;;;16.42;5.00;;;7.80;99.90;;;;;;5050482;28;20204;-75
2024/02/08 11:59:39;;;;;;;8.15;4.55;;;7.80;99.90;;;;;;5040970;28;20309;-74
2024/02/08 12:02:08;;;;;;;8.55;5.05;;;7.70;99.90;;;;;;5052779;28;20266;-74
2024/02/08 12:04:36;;;;;;;14.93;4.95;;;7.60;99.90;;;;;;5052913;28;20208;-74
2024/02/08 12:07:07;;;;;;;15.52;4.13;;;7.70;99.90;;;;;;5046304;28;20208;-73
2024/02/08 12:09:34;;;;;;;11.93;4.00;;;7.70;99.90;;;;;;5043131;28;20200;-73
2024/02/08 12:12:03;;;;;;;10.70;4.35;;;7.80;99.90;;;;;;5040628;28;20251;-74
2024/02/08 12:14:31;;;;;;;12.77;4.40;;;7.80;99.90;;;;;;5047834;28;20655;-76
2024/02/08 12:16:58;;;;;;;13.80;4.65;;;7.70;99.90;;;;;;5040937;28;20215;-74
2024/02/08 12:19:27;;;;;;;11.35;3.67;;;7.60;99.90;;;;;;5040415;28;20365;-74
2024/02/08 12:21:56;;;;;;;21.80;4.32;;;7.60;99.90;;;;;;5045361;28;20220;-74
2024/02/08 12:24:23;;;;;;;10.50;4.05;;;7.70;99.90;;;;;;5050238;28;20303;-73
2024/02/08 12:26:54;;;;;;;6.00;3.28;;;7.60;99.90;;;;;;5049883;28;20610;-75
2024/02/08 12:29:24;;;;;;;12.48;5.18;;;7.70;99.90;;;;;;5051891;28;20207;-72
2024/02/08 12:31:55;;;;;;;14.20;6.00;;;7.70;99.90;;;;;;5047141;28;20204;-74
2024/02/08 12:34:31;;;;;;;13.05;7.63;;;7.50;99.90;;;;;;5043992;28;20235;-74
2024/02/08 12:37:04;;;;;;;14.43;4.05;;;7.50;99.90;;;;;;5040916;28;20318;-75
2024/02/08 12:39:34;;;;;;;8.70;3.67;;;7.40;99.90;;;;;;5042863;28;20516;-73
2024/02/08 12:42:04;;;;;;;8.90;4.50;;;7.30;99.90;;;;;;5052289;28;20200;-72
2024/02/08 12:44:34;;;;;;;9.43;4.68;;;7.30;99.90;;;;;;5053622;28;20716;-74
2024/02/08 12:47:06;;;;;;;16.85;4.90;;;7.30;99.90;;;;;;5034617;28;20292;-74
2024/02/08 12:49:33;;;;;;;25.13;7.05;;;7.30;99.90;;;;;;5045628;28;20229;-75
2024/02/08 12:52:03;;;;;;;12.93;5.90;;;7.30;99.90;;;;;;5044615;28;20369;-73
2024/02/08 12:54:33;;;;;;;12.43;4.85;;;7.40;99.90;;;;;;5048192;28;20205;-74
2024/02/08 12:57:07;;;;;;;14.00;4.10;;;7.40;99.90;;;;;;5049573;28;20204;-74
2024/02/08 12:59:36;;;;;;;7.43;3.00;;;7.50;99.90;;;;;;5051330;28;20219;-74
2024/02/08 13:02:08;;;;;;;14.82;3.33;;;7.40;99.90;;;;;;5044057;28;20246;-74
2024/02/08 13:04:43;;;;;;;9.15;2.95;;;7.30;99.90;;;;;;5039319;28;20210;-73
2024/02/08 13:07:13;;;;;;;7.55;2.88;;;7.30;99.90;;;;;;5042900;28;20212;-75
2024/02/08 13:09:40;;;;;;;11.68;2.83;;;7.30;99.90;;;;;;5048008;28;20207;-72
2024/02/08 13:12:19;;;;;;;10.48;4.20;;;7.20;99.90;;;;;;5047276;28;20251;-74
2024/02/08 13:15:02;;;;;;;13.10;3.42;;;7.10;99.90;;;;;;5040541;28;20207;-74
2024/02/08 13:17:33;;;;;;;16.77;5.53;;;7.00;99.90;;;;;;5039759;28;20212;-73
2024/02/08 13:20:11;;;;;;;11.15;3.83;;;6.90;99.90;;;;;;5046304;28;20242;-75
2024/02/08 13:22:38;;;;;;;16.98;3.90;;;6.80;99.90;;;;;;5046017;28;20579;-74
2024/02/08 13:25:11;;;;;;;18.40;5.95;;;6.80;99.90;;;;;;5048584;28;20200;-74
2024/02/08 13:27:39;;;;;;;20.40;4.53;;;6.80;99.90;;;;;;5044966;28;20200;-74
2024/02/08 13:30:14;;;;;;;16.45;5.15;;;6.80;99.90;;;;;;5041475;28;20204;-74
2024/02/08 13:32:44;;;;;;;10.90;4.13;;;6.70;99.90;;;;;;5037932;28;20589;-74
2024/02/08 13:35:18;;;;;;;17.50;4.53;;;6.60;99.90;;;;;;5041064;28;20231;-74
2024/02/08 13:37:46;;;;;;;13.75;4.45;;;6.60;99.90;;;;;;5051222;28;20199;-74
2024/02/08 13:40:15;;;;;;;11.02;3.70;;;6.60;99.90;;;;;;5042865;28;20211;-74
2024/02/08 13:42:42;;;;;;;15.60;3.85;;;6.60;99.90;;;;;;5042951;28;20220;-74
2024/02/08 13:45:13;;;;;;;11.77;5.03;;;6.60;99.90;;;;;;5053694;28;20214;-73
2024/02/08 13:47:46;;;;;;;11.27;3.47;;;6.70;99.90;;;;;;5046187;28;20355;-73
2024/02/08 13:50:13;;;;;;;11.95;4.32;;;6.70;99.90;;;;;;5048702;28;20203;-74
2024/02/08 13:52:40;;;;;;;8.95;3.35;;;6.70;99.90;;;;;;5051339;28;20292;-75
2024/02/08 13:55:08;;;;;;;13.05;3.78;;;6.70;99.90;;;;;;5046569;28;20200;-75
2024/02/08 13:57:36;;;;;;;14.10;3.38;;;6.70;99.90;;;;;;5043882;28;20595;-74
2024/02/08 14:00:07;;;;;;;10.63;3.67;;;6.60;99.90;;;;;;5043341;28;20561;-76
2024/02/08 14:02:36;;;;;;;9.02;3.95;;;6.60;99.90;;;;;;5059337;28;20224;-74
2024/02/08 14:05:16;;;;;;;7.55;3.58;;;6.60;99.90;;;;;;5051663;28;20208;-75
2024/02/08 14:07:47;;;;;;;12.60;4.45;;;6.50;99.90;;;;;;5049146;28;20574;-73
2024/02/08 14:10:18;;;;;;;8.43;4.00;;;6.50;99.90;;;;;;5047857;28;20673;-74
2024/02/08 14:12:49;;;;;;;6.00;3.20;;;6.50;99.90;;;;;;5059680;28;20216;-75
2024/02/08 14:15:21;;;;;;;11.50;5.15;;;6.40;99.90;;;;;;5053593;28;20200;-73
2024/02/08 14:17:54;;;;;;;12.25;4.30;;;6.40;99.90;;;;;;5038103;28;20213;-73
2024/02/08 14:20:39;;;;;;;6.30;2.97;;;6.40;99.90;;;;;;5043155;28;20230;-73
2024/02/08 14:23:09;;;;;;;15.85;3.95;;;6.50;99.90;;;;;;5048063;28;20243;-72
2024/02/08 14:26:00;;;;;;;9.90;3.25;;;6.50;99.90;;;;;;5045266;28;20681;-74
2024/02/08 14:28:29;;;;;;;10.63;4.82;;;6.50;99.90;;;;;;5046805;28;20576;-74
2024/02/08 14:30:56;;;;;;;7.28;2.97;;;6.50;99.90;;;;;;5043677;28;20701;-73
2024/02/08 14:33:23;;;;;;;11.40;4.18;;;6.50;99.90;;;;;;5056784;28;20631;-73
2024/02/08 14:35:51;;;;;;;7.40;4.05;;;6.50;99.90;;;;;;5053123;28;20254;-74
2024/02/08 14:38:18;;;;;;;11.40;4.30;;;6.40;99.90;;;;;;5048488;28;20224;-73
2024/02/08 14:40:47;;;;;;;12.20;4.85;;;6.40;99.90;;;;;;5047807;28;20391;-73
2024/02/08 14:43:25;;;;;;;18.42;4.30;;;6.40;99.90;;;;;;5055883;28;20220;-74
2024/02/08 14:45:54;;;;;;;10.45;3.60;;;6.40;99.90;;;;;;5045877;28;20204;-76
2024/02/08 14:48:26;;;;;;;11.30;4.20;;;6.50;99.90;;;;;;5045378;28;20287;-75
2024/02/08 14:51:05;;;;;;;10.98;4.32;;;6.40;99.90;;;;;;5044347;28;20203;-73
2024/02/08 14:53:32;;;;;;;11.30;3.25;;;6.30;99.90;;;;;;5045689;28;20262;-75
2024/02/08 14:56:01;;;;;;;11.50;3.70;;;6.30;99.90;;;;;;5042592;28;20197;-76
2024/02/08 14:58:40;;;;;;;9.20;3.55;;;6.30;99.90;;;;;;5041210;28;20274;-75
2024/02/08 15:01:09;;;;;;;7.85;3.40;;;6.30;99.90;;;;;;5048355;28;20310;-77
2024/02/08 15:03:39;;;;;;;18.73;4.78;;;6.30;99.90;;;;;;5051163;28;20303;-74
2024/02/08 15:06:38;;;;;;;13.95;4.35;;;6.30;99.90;;;;;;5049841;28;20270;-74